CheckWX is a tool to help pilots better visualize weather data.  It is not intended as a substitute for an official pre-flight weather briefing.

02:51:57 UTC

KAIT METAR
Aitkin Municipal-Steve Kurtz Field Airport
Aitkin, Minnesota, USA
Current

17 mins ago

KAIT 240235Z AUTO 21003KT 10SM CLR 03/M02 A3007 RMK AO2
Observed
Mar-24 @ 02:35 UTC
Wind
  • 210° at 3 KTS
Visibility
10 SM
Flight Rules
VFR
Cloud Levels
  • Clear skies
Temperature
C / 37°F
Dewpoint
-2°C / 28°F
Humidity
70%
Altimeter
30.07" Hg
Pressure
1018.32 hPa
Previous

36 mins ago

KAIT 240216Z AUTO 20005KT 10SM CLR 03/M02 A3007 RMK AO2
Observed
Mar-24 @ 02:16 UTC
Wind
  • 200° at 5 KTS
Visibility
10 SM
Flight Rules
VFR
Cloud Levels
  • Clear skies
Temperature
C / 37°F
Dewpoint
-2°C / 28°F
Humidity
70%
Altimeter
30.07" Hg
Pressure
1018.32 hPa
Previous

57 mins ago

KAIT 240155Z AUTO 20005KT 10SM CLR 03/M02 A3007 RMK AO2
Observed
Mar-24 @ 01:55 UTC
Wind
  • 200° at 5 KTS
Visibility
10 SM
Flight Rules
VFR
Cloud Levels
  • Clear skies
Temperature
C / 37°F
Dewpoint
-2°C / 28°F
Humidity
70%
Altimeter
30.07" Hg
Pressure
1018.32 hPa